createdAt,value
2018-04-27T00:00:51.407Z,0.00
2018-04-27T00:01:42.014Z,0.00
2018-04-27T00:02:51.897Z,0.00
2018-04-27T00:03:42.511Z,0.00
2018-04-27T00:04:50.435Z,0.00
2018-04-27T00:05:43.111Z,0.00
2018-04-27T00:06:50.978Z,0.00
2018-04-27T00:07:43.635Z,0.00
2018-04-27T00:08:51.566Z,0.00
2018-04-27T00:09:44.210Z,0.00
2018-04-27T00:10:53.282Z,0.00
2018-04-27T00:11:44.815Z,0.00
2018-04-27T00:12:53.709Z,0.00
2018-04-27T00:13:45.414Z,0.00
2018-04-27T00:14:45.653Z,0.00
2018-04-27T00:15:45.897Z,0.00
2018-04-27T00:16:53.756Z,0.00
2018-04-27T00:17:55.069Z,0.00
2018-04-27T00:18:55.675Z,0.00
2018-04-27T00:19:47.189Z,0.00
2018-04-27T00:20:56.083Z,0.00
2018-04-27T00:21:47.779Z,0.00
2018-04-27T00:22:57.661Z,0.00
2018-04-27T00:23:56.864Z,0.00
2018-04-27T00:24:48.638Z,0.00
2018-04-27T00:25:58.515Z,0.00
2018-04-27T00:26:57.745Z,0.00
2018-04-27T00:27:58.108Z,0.00
2018-04-27T00:28:58.525Z,0.00
2018-04-27T00:29:50.287Z,0.00
2018-04-27T00:31:00.120Z,0.00
2018-04-27T00:31:50.730Z,0.00
2018-04-27T00:32:50.952Z,0.00
2018-04-27T00:33:51.170Z,0.00
2018-04-27T00:34:51.413Z,0.00
2018-04-27T00:36:00.284Z,0.00
2018-04-27T00:36:51.856Z,0.00
2018-04-27T00:37:52.066Z,0.00
2018-04-27T00:38:52.302Z,0.00
2018-04-27T00:39:52.541Z,0.00
2018-04-27T00:40:52.792Z,0.00
2018-04-27T00:41:53.045Z,0.00
2018-04-27T00:42:53.293Z,0.00
2018-04-27T00:44:02.223Z,0.00
2018-04-27T00:44:53.972Z,0.00
2018-04-27T00:45:54.186Z,0.00
2018-04-27T00:47:02.028Z,0.00
2018-04-27T00:48:02.381Z,0.00
2018-04-27T00:49:04.694Z,0.00
2018-04-27T00:49:55.273Z,0.00
2018-04-27T00:51:04.350Z,0.00
2018-04-27T00:51:55.900Z,0.00
2018-04-27T00:52:56.132Z,0.00
2018-04-27T00:53:56.369Z,0.00
2018-04-27T00:55:06.261Z,0.00
2018-04-27T00:56:04.568Z,0.00
2018-04-27T00:56:57.219Z,0.00
2018-04-27T00:57:57.438Z,0.00
2018-04-27T00:59:06.292Z,0.00
2018-04-27T00:59:58.042Z,0.00
2018-04-27T01:00:58.276Z,0.00
2018-04-27T01:01:58.504Z,0.00
2018-04-27T01:02:58.781Z,0.00
2018-04-27T01:04:07.646Z,0.00
2018-04-27T01:05:07.048Z,0.00
2018-04-27T01:05:59.703Z,0.00
2018-04-27T01:06:59.936Z,0.00
2018-04-27T01:08:00.163Z,0.00
2018-04-27T01:09:00.403Z,0.00
2018-04-27T01:10:00.627Z,0.00
2018-04-27T01:11:00.876Z,0.00
2018-04-27T01:12:01.156Z,0.00
2018-04-27T01:13:09.091Z,0.00
2018-04-27T01:14:01.779Z,0.00
2018-04-27T01:15:10.653Z,0.00
2018-04-27T01:16:10.031Z,0.00
2018-04-27T01:17:02.674Z,0.00
2018-04-27T01:18:02.901Z,0.00
2018-04-27T01:19:03.129Z,0.00
2018-04-27T01:20:11.037Z,0.00
2018-04-27T01:21:03.667Z,0.00
2018-04-27T01:22:03.919Z,0.00
2018-04-27T01:23:04.150Z,0.00
2018-04-27T01:24:04.391Z,0.00
2018-04-27T01:25:04.644Z,0.00
2018-04-27T01:26:13.545Z,0.00
2018-04-27T01:27:05.338Z,0.00
2018-04-27T01:28:13.283Z,0.00
2018-04-27T01:29:05.865Z,0.00
2018-04-27T01:30:06.098Z,0.00
2018-04-27T01:31:14.953Z,0.00
2018-04-27T01:32:06.742Z,0.00
2018-04-27T01:33:06.923Z,0.00
2018-04-27T01:34:07.195Z,0.00
2018-04-27T01:35:07.396Z,0.00
2018-04-27T01:36:07.623Z,0.00
2018-04-27T01:37:17.535Z,0.00
2018-04-27T01:38:08.087Z,0.00
2018-04-27T01:39:08.327Z,0.00
2018-04-27T01:40:08.577Z,0.00
2018-04-27T01:41:08.784Z,0.00
2018-04-27T01:42:09.040Z,0.00
2018-04-27T01:43:09.305Z,0.00
2018-04-27T01:44:09.543Z,0.00
2018-04-27T01:45:09.821Z,0.00
2018-04-27T01:46:10.084Z,0.00
2018-04-27T01:47:10.332Z,0.00
2018-04-27T01:48:19.256Z,0.00
2018-04-27T01:49:10.981Z,0.00
2018-04-27T01:50:18.876Z,0.00
2018-04-27T01:51:11.530Z,0.00
2018-04-27T01:52:11.793Z,0.00
2018-04-27T01:53:12.039Z,0.00
2018-04-27T01:54:12.292Z,0.00
2018-04-27T01:55:12.517Z,0.00
2018-04-27T01:56:12.765Z,0.00
2018-04-27T01:57:13.018Z,0.00
2018-04-27T01:58:21.879Z,0.00
2018-04-27T01:59:13.651Z,0.00
2018-04-27T02:00:21.564Z,0.00
2018-04-27T02:01:14.273Z,0.00
2018-04-27T02:02:14.496Z,0.00
2018-04-27T02:03:14.732Z,0.00
2018-04-27T02:04:23.641Z,0.00
2018-04-27T02:05:15.340Z,0.00
2018-04-27T02:06:15.588Z,0.00
2018-04-27T02:07:15.807Z,0.00
2018-04-27T02:08:16.043Z,0.00
2018-04-27T02:09:16.345Z,0.00
2018-04-27T02:10:16.557Z,0.00
2018-04-27T02:11:24.474Z,0.00
2018-04-27T02:12:17.155Z,0.00
2018-04-27T02:13:27.004Z,0.00
2018-04-27T02:14:17.599Z,0.00
2018-04-27T02:15:27.605Z,0.00
2018-04-27T02:16:18.103Z,0.00
2018-04-27T02:17:18.385Z,0.00
2018-04-27T02:18:18.565Z,0.00
2018-04-27T02:19:18.888Z,0.00
2018-04-27T02:20:19.080Z,0.00
2018-04-27T02:21:28.062Z,0.00
2018-04-27T02:22:19.599Z,0.00
2018-04-27T02:23:19.785Z,0.00
2018-04-27T02:24:20.024Z,0.00
2018-04-27T02:25:29.981Z,0.00
2018-04-27T02:26:28.199Z,0.00
2018-04-27T02:27:20.857Z,0.00
2018-04-27T02:28:28.748Z,0.00
2018-04-27T02:29:30.027Z,0.00
2018-04-27T02:30:21.776Z,0.00
2018-04-27T02:31:22.003Z,0.00
2018-04-27T02:32:22.240Z,0.00
2018-04-27T02:33:22.474Z,0.00
2018-04-27T02:34:22.746Z,0.00
2018-04-27T02:35:30.624Z,0.00
2018-04-27T02:36:23.302Z,0.00
2018-04-27T02:37:31.156Z,0.00
2018-04-27T02:38:23.833Z,0.00
2018-04-27T02:39:33.936Z,0.00
2018-04-27T02:40:24.347Z,0.00
2018-04-27T02:41:24.582Z,0.00
2018-04-27T02:42:32.468Z,0.00
2018-04-27T02:43:25.104Z,0.00
2018-04-27T02:44:25.354Z,0.00
2018-04-27T02:45:34.203Z,0.00
2018-04-27T02:46:25.972Z,0.00
2018-04-27T02:47:26.194Z,0.00
2018-04-27T02:48:35.090Z,0.00
2018-04-27T02:49:36.498Z,0.00
2018-04-27T02:50:27.103Z,0.00
2018-04-27T02:51:27.338Z,0.00
2018-04-27T02:52:27.556Z,0.00
2018-04-27T02:53:27.807Z,0.00
2018-04-27T02:54:36.690Z,0.00
2018-04-27T02:55:36.083Z,0.00
2018-04-27T02:56:37.335Z,0.00
2018-04-27T02:57:29.078Z,0.00
2018-04-27T02:58:29.324Z,0.00
2018-04-27T02:59:29.533Z,0.00
2018-04-27T03:00:37.499Z,0.00
2018-04-27T03:01:38.884Z,0.00
2018-04-27T03:02:39.150Z,0.00
2018-04-27T03:03:40.580Z,0.00
2018-04-27T03:04:31.134Z,0.00
2018-04-27T03:05:38.996Z,0.00
2018-04-27T03:06:31.648Z,0.00
2018-04-27T03:07:31.916Z,0.00
2018-04-27T03:08:32.163Z,0.00
2018-04-27T03:09:32.358Z,0.00
2018-04-27T03:10:40.248Z,0.00
2018-04-27T03:11:32.952Z,0.00
2018-04-27T03:12:41.828Z,0.00
2018-04-27T03:13:33.350Z,0.00
2018-04-27T03:14:42.235Z,0.00
2018-04-27T03:15:33.955Z,0.00
2018-04-27T03:16:34.222Z,0.00
2018-04-27T03:17:34.502Z,0.00
2018-04-27T03:18:44.365Z,0.00
2018-04-27T03:19:34.951Z,0.00
2018-04-27T03:20:42.802Z,0.00
2018-04-27T03:21:35.486Z,0.00
2018-04-27T03:22:35.737Z,0.00
2018-04-27T03:23:35.955Z,0.00
2018-04-27T03:24:36.167Z,0.00
2018-04-27T03:25:36.423Z,0.00
2018-04-27T03:26:36.671Z,0.00
2018-04-27T03:27:36.993Z,0.00
2018-04-27T03:28:37.146Z,0.00
2018-04-27T03:29:47.054Z,0.00
2018-04-27T03:30:37.633Z,0.00
2018-04-27T03:31:37.872Z,0.00
2018-04-27T03:32:38.091Z,0.00
2018-04-27T03:33:46.183Z,0.00
2018-04-27T03:34:38.599Z,0.00
2018-04-27T03:35:47.510Z,0.00
2018-04-27T03:36:39.210Z,0.00
2018-04-27T03:37:49.080Z,0.00
2018-04-27T03:38:39.655Z,0.00
2018-04-27T03:39:39.892Z,0.00
2018-04-27T03:40:40.143Z,0.00
2018-04-27T03:41:40.374Z,0.00
2018-04-27T03:42:40.607Z,0.00
2018-04-27T03:43:40.842Z,0.00
2018-04-27T03:44:41.126Z,0.00
2018-04-27T03:45:41.426Z,0.00
2018-04-27T03:46:41.661Z,0.00
2018-04-27T03:47:41.932Z,0.00
2018-04-27T03:48:49.826Z,0.00
2018-04-27T03:49:42.501Z,0.00
2018-04-27T03:50:52.378Z,0.00
2018-04-27T03:51:42.946Z,0.00
2018-04-27T03:52:43.185Z,0.00
2018-04-27T03:53:43.421Z,5.63
2018-04-27T03:54:43.683Z,5.63
2018-04-27T03:55:43.914Z,5.63
2018-04-27T03:56:44.132Z,5.63
2018-04-27T03:57:44.376Z,5.63
2018-04-27T03:58:52.455Z,5.63
2018-04-27T03:59:44.843Z,5.63
2018-04-27T04:00:45.079Z,11.25
2018-04-27T04:01:45.321Z,11.25
2018-04-27T04:02:53.242Z,11.25
2018-04-27T04:03:45.912Z,11.25
2018-04-27T04:04:46.121Z,11.25
2018-04-27T04:05:46.367Z,11.25
2018-04-27T04:06:55.242Z,16.88
2018-04-27T04:07:46.987Z,16.88
2018-04-27T04:08:55.856Z,16.88
2018-04-27T04:09:47.620Z,16.88
2018-04-27T04:10:47.823Z,22.50
2018-04-27T04:11:48.048Z,22.50
2018-04-27T04:12:48.291Z,22.50
2018-04-27T04:13:48.536Z,28.13
2018-04-27T04:14:57.633Z,28.13
2018-04-27T04:15:49.182Z,28.13
2018-04-27T04:16:57.089Z,33.75
2018-04-27T04:17:58.370Z,33.75
2018-04-27T04:18:58.973Z,33.75
2018-04-27T04:19:50.462Z,39.38
2018-04-27T04:21:00.305Z,39.38
2018-04-27T04:21:50.908Z,39.38
2018-04-27T04:22:59.770Z,45.00
2018-04-27T04:23:59.161Z,45.00
2018-04-27T04:24:51.825Z,50.63
2018-04-27T04:25:52.063Z,50.63
2018-04-27T04:26:52.338Z,56.25
2018-04-27T04:28:00.168Z,56.25
2018-04-27T04:28:52.854Z,61.88
2018-04-27T04:30:01.697Z,61.88
2018-04-27T04:31:01.146Z,61.88
2018-04-27T04:31:53.780Z,67.50
2018-04-27T04:33:01.669Z,67.50
2018-04-27T04:33:54.343Z,73.13
2018-04-27T04:35:03.243Z,73.13
2018-04-27T04:36:02.611Z,78.75
2018-04-27T04:36:55.270Z,84.38
2018-04-27T04:37:55.505Z,84.38
2018-04-27T04:39:03.378Z,84.38
2018-04-27T04:39:56.072Z,84.38
2018-04-27T04:40:56.276Z,90.00
2018-04-27T04:42:05.200Z,90.00
2018-04-27T04:43:06.533Z,95.63
2018-04-27T04:44:04.799Z,95.63
2018-04-27T04:45:07.186Z,101.25
2018-04-27T04:46:07.348Z,101.25
2018-04-27T04:47:05.646Z,101.25
2018-04-27T04:48:05.910Z,106.88
2018-04-27T04:49:07.205Z,118.13
2018-04-27T04:50:08.624Z,118.13
2018-04-27T04:51:08.130Z,118.13
2018-04-27T04:51:59.409Z,118.13
2018-04-27T04:53:07.309Z,118.13
2018-04-27T04:54:08.616Z,123.75
2018-04-27T04:55:09.068Z,123.75
2018-04-27T04:56:00.739Z,123.75
2018-04-27T04:57:00.978Z,129.38
2018-04-27T04:58:01.197Z,129.38
2018-04-27T04:59:09.074Z,129.38
2018-04-27T05:00:09.519Z,129.38
2018-04-27T05:01:11.646Z,129.38
2018-04-27T05:02:02.466Z,135.00
2018-04-27T05:03:02.806Z,135.00
2018-04-27T05:04:02.908Z,135.00
2018-04-27T05:05:03.121Z,135.00
2018-04-27T05:06:03.361Z,140.63
2018-04-27T05:07:03.650Z,146.25
2018-04-27T05:08:11.844Z,146.25
2018-04-27T05:09:04.307Z,140.63
2018-04-27T05:10:04.432Z,140.63
2018-04-27T05:11:04.693Z,140.63
2018-04-27T05:12:13.726Z,140.63
2018-04-27T05:13:05.300Z,140.63
2018-04-27T05:14:05.620Z,140.63
2018-04-27T05:15:05.766Z,140.63
2018-04-27T05:16:05.995Z,140.63
2018-04-27T05:17:06.229Z,140.63
2018-04-27T05:18:06.462Z,140.63
2018-04-27T05:19:06.688Z,146.25
2018-04-27T05:20:06.916Z,151.88
2018-04-27T05:21:07.181Z,151.88
2018-04-27T05:22:07.397Z,157.50
2018-04-27T05:23:07.623Z,163.13
2018-04-27T05:24:07.852Z,163.13
2018-04-27T05:25:08.092Z,168.75
2018-04-27T05:26:08.326Z,174.38
2018-04-27T05:27:08.560Z,174.38
2018-04-27T05:28:08.901Z,174.38
2018-04-27T05:29:09.065Z,180.00
2018-04-27T05:30:09.300Z,180.00
2018-04-27T05:31:09.531Z,174.38
2018-04-27T05:32:09.767Z,174.38
2018-04-27T05:33:09.995Z,174.38
2018-04-27T05:34:10.244Z,174.38
2018-04-27T05:35:10.491Z,174.38
2018-04-27T05:36:10.719Z,174.38
2018-04-27T05:37:10.961Z,174.38
2018-04-27T05:38:11.304Z,174.38
2018-04-27T05:39:11.432Z,174.38
2018-04-27T05:40:11.652Z,174.38
2018-04-27T05:41:11.905Z,180.00
2018-04-27T05:42:12.158Z,180.00
2018-04-27T05:43:12.368Z,185.63
2018-04-27T05:44:12.614Z,196.88
2018-04-27T05:45:12.838Z,202.50
2018-04-27T05:46:13.081Z,213.75
2018-04-27T05:47:13.304Z,219.38
2018-04-27T05:48:13.560Z,236.25
2018-04-27T05:49:13.831Z,241.88
2018-04-27T05:50:14.031Z,247.50
2018-04-27T05:51:14.266Z,247.50
2018-04-27T05:52:14.505Z,247.50
2018-04-27T05:53:14.763Z,253.13
2018-04-27T05:54:14.999Z,258.75
2018-04-27T05:55:15.228Z,258.75
2018-04-27T05:56:15.483Z,264.38
2018-04-27T05:57:15.723Z,270.00
2018-04-27T05:58:15.952Z,275.63
2018-04-27T05:59:16.243Z,281.25
2018-04-27T06:00:16.480Z,286.88
2018-04-27T06:01:16.700Z,281.25
2018-04-27T06:02:16.920Z,281.25
2018-04-27T06:03:17.157Z,298.13
2018-04-27T06:04:17.395Z,309.38
2018-04-27T06:05:17.653Z,309.38
2018-04-27T06:06:17.922Z,309.38
2018-04-27T06:07:18.186Z,309.38
2018-04-27T06:08:18.428Z,315.00
2018-04-27T06:09:18.655Z,320.63
2018-04-27T06:10:18.938Z,326.25
2018-04-27T06:11:19.199Z,326.25
2018-04-27T06:12:19.418Z,331.88
2018-04-27T06:13:19.648Z,326.25
2018-04-27T06:14:19.969Z,331.88
2018-04-27T06:15:20.238Z,326.25
2018-04-27T06:16:20.463Z,320.63
2018-04-27T06:17:20.693Z,320.63
2018-04-27T06:18:20.943Z,326.25
2018-04-27T06:19:21.177Z,331.88
2018-04-27T06:20:29.638Z,331.88
2018-04-27T06:21:21.866Z,343.13
2018-04-27T06:22:22.137Z,348.75
2018-04-27T06:23:22.258Z,354.38
2018-04-27T06:24:22.502Z,365.63
2018-04-27T06:25:22.738Z,371.25
2018-04-27T06:26:22.973Z,371.25
2018-04-27T06:27:23.195Z,376.88
2018-04-27T06:28:23.457Z,376.88
2018-04-27T06:29:23.666Z,382.50
2018-04-27T06:30:23.905Z,388.13
2018-04-27T06:31:24.134Z,382.50
2018-04-27T06:32:24.365Z,393.75
2018-04-27T06:33:24.683Z,399.38
2018-04-27T06:34:24.912Z,410.63
2018-04-27T06:35:25.164Z,421.88
2018-04-27T06:36:35.338Z,438.75
2018-04-27T06:37:25.773Z,455.63
2018-04-27T06:38:25.901Z,466.88
2018-04-27T06:39:26.154Z,478.13
2018-04-27T06:40:26.381Z,495.00
2018-04-27T06:41:26.618Z,506.25
2018-04-27T06:42:35.660Z,517.50
2018-04-27T06:43:35.969Z,511.88
2018-04-27T06:44:35.268Z,517.50
2018-04-27T06:45:36.567Z,540.00
2018-04-27T06:46:36.894Z,511.88
2018-04-27T06:47:38.408Z,495.00
2018-04-27T06:48:39.509Z,472.50
2018-04-27T06:49:37.836Z,511.88
2018-04-27T06:50:37.254Z,511.88
2018-04-27T06:51:38.601Z,523.13
2018-04-27T06:52:38.947Z,596.25
2018-04-27T06:53:40.110Z,596.25
2018-04-27T06:54:39.332Z,573.75
2018-04-27T06:55:39.745Z,540.00
2018-04-27T06:56:40.115Z,607.50
2018-04-27T06:57:31.836Z,517.50
2018-04-27T06:58:32.063Z,528.75
2018-04-27T06:59:40.971Z,568.13
2018-04-27T07:00:41.385Z,630.00
2018-04-27T07:01:33.176Z,590.63
2018-04-27T07:02:42.968Z,652.50
2018-04-27T07:03:41.419Z,703.13
2018-04-27T07:04:33.870Z,703.13
2018-04-27T07:05:43.749Z,680.63
2018-04-27T07:06:42.969Z,675.00
2018-04-27T07:07:34.707Z,624.38
2018-04-27T07:08:34.947Z,663.75
2018-04-27T07:09:35.171Z,686.25
2018-04-27T07:10:35.423Z,669.38
2018-04-27T07:11:35.737Z,663.75
2018-04-27T07:12:35.914Z,686.25
2018-04-27T07:13:36.154Z,697.50
2018-04-27T07:14:36.413Z,753.75
2018-04-27T07:15:45.282Z,680.63
2018-04-27T07:16:37.048Z,641.25
2018-04-27T07:17:37.274Z,652.50
2018-04-27T07:18:37.536Z,686.25
2018-04-27T07:19:37.749Z,731.25
2018-04-27T07:20:38.031Z,708.75
2018-04-27T07:21:38.275Z,658.13
2018-04-27T07:22:47.176Z,691.88
2018-04-27T07:23:38.784Z,759.38
2018-04-27T07:24:46.995Z,821.25
2018-04-27T07:25:39.324Z,849.38
2018-04-27T07:26:39.752Z,748.13
2018-04-27T07:27:39.792Z,826.88
2018-04-27T07:28:40.024Z,900.00
2018-04-27T07:29:40.263Z,793.13
2018-04-27T07:30:40.508Z,860.63
2018-04-27T07:31:40.772Z,838.13
2018-04-27T07:32:41.119Z,838.13
2018-04-27T07:33:41.383Z,826.88
2018-04-27T07:34:41.630Z,765.00
2018-04-27T07:35:41.976Z,748.13
2018-04-27T07:36:42.195Z,753.75
2018-04-27T07:37:42.572Z,838.13
2018-04-27T07:38:42.937Z,883.13
2018-04-27T07:39:43.123Z,922.50
2018-04-27T07:40:43.438Z,1006.88
2018-04-27T07:41:43.663Z,1046.25
2018-04-27T07:42:43.902Z,978.75
2018-04-27T07:43:44.139Z,1006.88
2018-04-27T07:44:44.527Z,1040.63
2018-04-27T07:45:44.697Z,1001.25
2018-04-27T07:46:45.156Z,1035.00
2018-04-27T07:47:45.387Z,1102.50
2018-04-27T07:48:45.612Z,1158.75
2018-04-27T07:49:45.953Z,1136.25
2018-04-27T07:50:46.381Z,1108.13
2018-04-27T07:51:46.734Z,1051.88
2018-04-27T07:52:46.886Z,984.38
2018-04-27T07:53:47.253Z,961.88
2018-04-27T07:54:55.103Z,1035.00
2018-04-27T07:55:47.776Z,1057.50
2018-04-27T07:56:55.680Z,1080.00
2018-04-27T07:57:48.428Z,1051.88
2018-04-27T07:58:48.638Z,1091.25
2018-04-27T07:59:48.838Z,1170.00
2018-04-27T08:00:49.099Z,1158.75
2018-04-27T08:01:49.330Z,1147.50
2018-04-27T08:02:49.574Z,1158.75
2018-04-27T08:03:58.652Z,1141.88
2018-04-27T08:04:50.229Z,1108.13
2018-04-27T08:05:50.563Z,1130.63
2018-04-27T08:06:50.763Z,1141.88
2018-04-27T08:07:50.931Z,1153.13
2018-04-27T08:08:51.242Z,1153.13
2018-04-27T08:09:51.440Z,1265.63
2018-04-27T08:10:51.699Z,1164.38
2018-04-27T08:11:51.958Z,1158.75
2018-04-27T08:12:52.193Z,1108.13
2018-04-27T08:13:52.447Z,1136.25
2018-04-27T08:14:52.734Z,1125.00
2018-04-27T08:15:52.989Z,1147.50
2018-04-27T08:16:53.341Z,1102.50
2018-04-27T08:17:53.491Z,1046.25
2018-04-27T08:18:53.898Z,1035.00
2018-04-27T08:19:54.123Z,1051.88
2018-04-27T08:20:54.467Z,1040.63
2018-04-27T08:21:54.715Z,1006.88
2018-04-27T08:22:55.267Z,1035.00
2018-04-27T08:23:55.237Z,1006.88
2018-04-27T08:24:55.466Z,1029.38
2018-04-27T08:25:55.775Z,1080.00
2018-04-27T08:26:56.058Z,1096.88
2018-04-27T08:28:04.943Z,1091.25
2018-04-27T08:28:56.667Z,1046.25
2018-04-27T08:29:56.928Z,967.50
2018-04-27T08:30:57.195Z,1035.00
2018-04-27T08:32:06.137Z,1023.75
2018-04-27T08:33:05.523Z,995.63
2018-04-27T08:34:06.784Z,1001.25
2018-04-27T08:35:06.227Z,984.38
2018-04-27T08:36:07.552Z,1001.25
2018-04-27T08:36:59.236Z,1040.63
2018-04-27T08:37:59.488Z,1051.88
2018-04-27T08:39:08.371Z,1012.50
2018-04-27T08:40:00.130Z,1012.50
2018-04-27T08:41:00.396Z,1023.75
2018-04-27T08:42:08.508Z,1012.50
2018-04-27T08:43:09.728Z,1018.13
2018-04-27T08:44:10.793Z,967.50
2018-04-27T08:45:01.408Z,933.75
2018-04-27T08:46:11.341Z,956.25
2018-04-27T08:47:01.923Z,950.63
2018-04-27T08:48:09.919Z,973.13
2018-04-27T08:49:10.156Z,973.13
2018-04-27T08:50:13.512Z,984.38
2018-04-27T08:51:03.203Z,961.88
2018-04-27T08:52:12.178Z,995.63
2018-04-27T08:53:03.943Z,1001.25
2018-04-27T08:54:11.867Z,1006.88
2018-04-27T08:55:13.220Z,995.63
2018-04-27T08:56:12.397Z,967.50
2018-04-27T08:57:05.076Z,984.38
2018-04-27T08:58:05.323Z,995.63
2018-04-27T08:59:05.569Z,1029.38
2018-04-27T09:00:05.820Z,1023.75
2018-04-27T09:01:06.060Z,1051.88
2018-04-27T09:02:06.312Z,995.63
2018-04-27T09:03:06.559Z,984.38
2018-04-27T09:04:06.826Z,990.00
2018-04-27T09:05:07.045Z,1001.25
2018-04-27T09:06:07.291Z,1035.00
2018-04-27T09:07:07.534Z,1018.13
2018-04-27T09:08:07.781Z,1040.63
2018-04-27T09:09:08.030Z,1057.50
2018-04-27T09:10:08.276Z,995.63
2018-04-27T09:11:08.525Z,995.63
2018-04-27T09:12:08.772Z,1035.00
2018-04-27T09:13:09.017Z,1001.25
2018-04-27T09:14:09.262Z,1006.88
2018-04-27T09:15:09.510Z,967.50
2018-04-27T09:16:09.760Z,1006.88
2018-04-27T09:17:10.006Z,1035.00
2018-04-27T09:18:10.251Z,843.75
2018-04-27T09:19:10.500Z,860.63
2018-04-27T09:20:10.735Z,1046.25
2018-04-27T09:21:10.981Z,1023.75
2018-04-27T09:22:11.227Z,1080.00
2018-04-27T09:23:11.475Z,1068.75
2018-04-27T09:24:11.889Z,1063.13
2018-04-27T09:25:12.140Z,1108.13
2018-04-27T09:26:12.386Z,1119.38
2018-04-27T09:27:12.643Z,1119.38
2018-04-27T09:28:12.881Z,1125.00
2018-04-27T09:29:13.125Z,1136.25
2018-04-27T09:30:13.386Z,1125.00
2018-04-27T09:31:13.618Z,1141.88
2018-04-27T09:32:13.888Z,1085.63
2018-04-27T09:33:14.113Z,978.75
2018-04-27T09:34:14.360Z,984.38
2018-04-27T09:35:14.607Z,1141.88
2018-04-27T09:36:14.845Z,1158.75
2018-04-27T09:37:15.116Z,1170.00
2018-04-27T09:38:15.351Z,1153.13
2018-04-27T09:39:15.591Z,1141.88
2018-04-27T09:40:15.848Z,1186.88
2018-04-27T09:41:16.092Z,1203.75
2018-04-27T09:42:16.347Z,1231.88
2018-04-27T09:43:16.584Z,1226.25
2018-04-27T09:44:16.834Z,1265.63
2018-04-27T09:45:17.106Z,1417.50
2018-04-27T09:46:24.966Z,1569.38
2018-04-27T09:47:17.644Z,1800.00
2018-04-27T09:48:17.902Z,1991.25
2018-04-27T09:49:18.133Z,2053.13
2018-04-27T09:50:18.391Z,2047.50
2018-04-27T09:51:18.635Z,1929.38
2018-04-27T09:52:18.884Z,1985.63
2018-04-27T09:53:19.124Z,2103.75
2018-04-27T09:54:19.367Z,1811.25
2018-04-27T09:55:19.631Z,1794.38
2018-04-27T09:56:19.856Z,1991.25
2018-04-27T09:57:20.100Z,2041.88
2018-04-27T09:58:20.340Z,1901.25
2018-04-27T09:59:20.583Z,1991.25
2018-04-27T10:00:20.829Z,2002.50
2018-04-27T10:01:21.066Z,2148.75
2018-04-27T10:02:21.317Z,2390.63
2018-04-27T10:03:21.556Z,2098.13
2018-04-27T10:04:21.803Z,1203.75
2018-04-27T10:05:22.056Z,2131.88
2018-04-27T10:06:22.318Z,2368.13
2018-04-27T10:07:22.568Z,2070.00
2018-04-27T10:08:22.814Z,1833.75
2018-04-27T10:09:23.056Z,956.25
2018-04-27T10:10:30.935Z,967.50
2018-04-27T10:11:23.608Z,1918.13
2018-04-27T10:12:23.911Z,1861.88
2018-04-27T10:13:24.155Z,2120.63
2018-04-27T10:14:24.367Z,2216.25
2018-04-27T10:15:24.621Z,2131.88
2018-04-27T10:16:24.889Z,2497.50
2018-04-27T10:17:25.110Z,2508.75
2018-04-27T10:18:25.358Z,2407.50
2018-04-27T10:19:25.607Z,2542.50
2018-04-27T10:20:25.924Z,2671.88
2018-04-27T10:21:26.105Z,2418.75
2018-04-27T10:22:26.339Z,2452.50
2018-04-27T10:23:26.593Z,2480.63
2018-04-27T10:24:26.835Z,2317.50
2018-04-27T10:25:34.753Z,2295.00
2018-04-27T10:26:27.431Z,2469.38
2018-04-27T10:27:35.372Z,2289.38
2018-04-27T10:28:35.639Z,945.00
2018-04-27T10:29:36.982Z,888.75
2018-04-27T10:30:36.355Z,933.75
2018-04-27T10:31:36.667Z,1012.50
2018-04-27T10:32:29.345Z,2458.13
2018-04-27T10:33:29.598Z,2885.63
2018-04-27T10:34:29.848Z,2823.75
2018-04-27T10:35:30.098Z,2728.13
2018-04-27T10:36:30.387Z,2227.50
2018-04-27T10:37:30.569Z,2818.13
2018-04-27T10:38:40.457Z,2913.75
2018-04-27T10:39:39.682Z,2986.88
2018-04-27T10:40:31.441Z,2840.63
2018-04-27T10:41:39.346Z,2722.50
2018-04-27T10:42:32.019Z,2919.38
2018-04-27T10:43:32.246Z,2823.75
2018-04-27T10:44:41.118Z,1918.13
2018-04-27T10:45:32.882Z,2328.75
2018-04-27T10:46:33.131Z,2255.63
2018-04-27T10:47:33.393Z,2250.00
2018-04-27T10:48:33.630Z,2362.50
2018-04-27T10:49:33.891Z,2694.38
2018-04-27T10:50:34.120Z,2953.13
2018-04-27T10:51:34.371Z,3161.25
2018-04-27T10:52:34.622Z,2998.13
2018-04-27T10:53:34.888Z,2986.88
2018-04-27T10:54:35.127Z,2857.50
2018-04-27T10:55:35.377Z,2660.63
2018-04-27T10:56:35.624Z,2655.00
2018-04-27T10:57:35.877Z,3020.63
2018-04-27T10:58:36.127Z,2756.25
2018-04-27T10:59:36.381Z,2981.25
2018-04-27T11:00:36.626Z,3386.25
2018-04-27T11:01:36.871Z,3397.50
2018-04-27T11:02:37.129Z,2975.63
2018-04-27T11:03:45.040Z,3206.25
2018-04-27T11:04:45.371Z,3273.75
2018-04-27T11:05:45.661Z,3285.00
2018-04-27T11:06:46.948Z,2941.88
2018-04-27T11:07:46.348Z,2835.00
2018-04-27T11:08:39.024Z,2857.50
2018-04-27T11:09:39.278Z,3026.25
2018-04-27T11:10:39.524Z,2581.88
2018-04-27T11:11:39.779Z,2452.50
2018-04-27T11:12:40.028Z,2351.25
2018-04-27T11:13:40.276Z,2801.25
2018-04-27T11:14:48.172Z,3009.38
2018-04-27T11:15:40.851Z,3099.38
2018-04-27T11:16:41.099Z,2885.63
2018-04-27T11:17:41.355Z,2925.00
2018-04-27T11:18:41.608Z,2981.25
2018-04-27T11:19:49.535Z,3465.00
2018-04-27T11:20:50.809Z,3189.38
2018-04-27T11:21:50.213Z,3268.13
2018-04-27T11:22:50.553Z,3189.38
2018-04-27T11:23:43.216Z,3195.00
2018-04-27T11:24:43.471Z,3436.88
2018-04-27T11:25:43.732Z,3380.63
2018-04-27T11:26:52.590Z,3178.13
2018-04-27T11:27:44.351Z,3386.25
2018-04-27T11:28:44.625Z,3386.25
2018-04-27T11:29:44.846Z,3431.25
2018-04-27T11:30:45.096Z,3391.88
2018-04-27T11:31:45.353Z,3543.75
2018-04-27T11:32:45.603Z,3616.88
2018-04-27T11:33:45.838Z,3526.88
2018-04-27T11:34:46.102Z,3622.50
2018-04-27T11:35:55.170Z,3639.38
2018-04-27T11:36:46.753Z,3600.00
2018-04-27T11:37:55.619Z,3594.38
2018-04-27T11:38:47.362Z,3583.13
2018-04-27T11:39:47.621Z,3723.75
2018-04-27T11:40:47.887Z,3774.38
2018-04-27T11:41:48.119Z,3740.63
2018-04-27T11:42:48.365Z,3678.75
2018-04-27T11:43:48.635Z,3616.88
2018-04-27T11:44:48.870Z,3307.50
2018-04-27T11:45:49.112Z,3532.50
2018-04-27T11:46:49.370Z,3465.00
2018-04-27T11:47:49.647Z,3498.75
2018-04-27T11:48:49.861Z,3375.00
2018-04-27T11:49:58.798Z,3397.50
2018-04-27T11:50:50.526Z,3588.75
2018-04-27T11:51:50.770Z,3386.25
2018-04-27T11:52:58.666Z,3420.00
2018-04-27T11:54:00.022Z,3470.63
2018-04-27T11:54:51.759Z,3813.75
2018-04-27T11:55:51.995Z,3841.88
2018-04-27T11:57:00.929Z,3886.88
2018-04-27T11:58:00.301Z,3847.50
2018-04-27T11:59:00.663Z,3841.88
2018-04-27T12:00:00.936Z,3127.50
2018-04-27T12:01:02.260Z,1271.25
2018-04-27T12:01:54.017Z,1417.50
2018-04-27T12:03:01.911Z,2126.25
2018-04-27T12:04:02.295Z,3358.13
2018-04-27T12:04:54.941Z,3268.13
2018-04-27T12:06:03.785Z,1479.38
2018-04-27T12:06:55.556Z,2036.25
2018-04-27T12:07:55.801Z,1957.50
2018-04-27T12:08:56.054Z,2683.13
2018-04-27T12:10:04.947Z,3009.38
2018-04-27T12:10:56.715Z,2745.00
2018-04-27T12:12:05.597Z,2846.25
2018-04-27T12:13:06.048Z,2958.75
2018-04-27T12:13:57.610Z,2885.63
2018-04-27T12:15:07.449Z,2745.00
2018-04-27T12:15:58.080Z,2925.00
2018-04-27T12:16:58.318Z,3155.63
2018-04-27T12:18:06.207Z,2992.50
2018-04-27T12:18:58.894Z,2885.63
2018-04-27T12:19:59.121Z,2851.88
2018-04-27T12:20:59.374Z,3121.88
2018-04-27T12:21:59.646Z,2880.00
2018-04-27T12:22:59.895Z,2891.25
2018-04-27T12:24:00.164Z,2722.50
2018-04-27T12:25:00.405Z,2508.75
2018-04-27T12:26:08.292Z,2351.25
2018-04-27T12:27:00.963Z,2587.50
2018-04-27T12:28:08.928Z,2908.13
2018-04-27T12:29:09.183Z,2593.13
2018-04-27T12:30:01.840Z,2688.75
2018-04-27T12:31:02.091Z,2531.25
2018-04-27T12:32:02.342Z,2829.38
2018-04-27T12:33:02.599Z,2632.50
2018-04-27T12:34:02.833Z,2250.00
2018-04-27T12:35:03.085Z,2604.38
2018-04-27T12:36:03.342Z,2638.13
2018-04-27T12:37:03.603Z,2992.50
2018-04-27T12:38:03.842Z,2790.00
2018-04-27T12:39:04.079Z,2733.75
2018-04-27T12:40:11.970Z,2570.63